createdAt,value
2018-02-07T00:01:22.744Z,36.57
2018-02-07T00:03:53.232Z,38.97
2018-02-07T00:06:23.581Z,38.63
2018-02-07T00:08:53.312Z,35.83
2018-02-07T00:11:23.561Z,38.90
2018-02-07T00:13:53.882Z,36.67
2018-02-07T00:16:23.206Z,34.73
2018-02-07T00:18:53.551Z,35.77
2018-02-07T00:21:22.122Z,36.87
2018-02-07T00:23:53.236Z,32.47
2018-02-07T00:26:21.544Z,34.87
2018-02-07T00:28:53.368Z,36.77
2018-02-07T00:31:22.441Z,40.63
2018-02-07T00:33:52.740Z,33.47
2018-02-07T00:36:22.302Z,35.00
2018-02-07T00:38:51.408Z,35.03
2018-02-07T00:41:20.188Z,33.40
2018-02-07T00:43:48.676Z,34.63
2018-02-07T00:46:16.628Z,35.77
2018-02-07T00:48:45.793Z,35.37
2018-02-07T00:51:13.834Z,35.30
2018-02-07T00:53:41.810Z,33.47
2018-02-07T00:56:09.397Z,35.23
2018-02-07T00:58:36.917Z,36.53
2018-02-07T01:01:04.563Z,35.27
2018-02-07T01:03:32.093Z,36.63
2018-02-07T01:05:59.634Z,39.23
2018-02-07T01:08:27.681Z,35.93
2018-02-07T01:10:55.553Z,41.33
2018-02-07T01:13:23.819Z,33.87
2018-02-07T01:15:52.403Z,37.07
2018-02-07T01:18:20.552Z,35.47
2018-02-07T01:20:48.547Z,37.30
2018-02-07T01:23:17.336Z,41.03
2018-02-07T01:25:45.010Z,40.33
2018-02-07T01:28:12.621Z,38.70
2018-02-07T01:30:40.529Z,38.77
2018-02-07T01:33:08.080Z,36.97
2018-02-07T01:35:35.603Z,39.67
2018-02-07T01:38:03.145Z,39.73
2018-02-07T01:40:30.668Z,37.33
2018-02-07T01:42:59.002Z,39.70
2018-02-07T01:45:27.030Z,44.97
2018-02-07T01:47:55.028Z,38.60
2018-02-07T01:50:24.557Z,43.93
2018-02-07T01:52:53.608Z,42.60
2018-02-07T01:55:22.377Z,41.43
2018-02-07T01:57:51.073Z,38.10
2018-02-07T02:00:19.133Z,40.13
2018-02-07T02:02:47.820Z,38.37
2018-02-07T02:05:16.133Z,41.40
2018-02-07T02:07:43.863Z,36.77
2018-02-07T02:10:11.613Z,41.67
2018-02-07T02:12:40.176Z,38.13
2018-02-07T02:15:08.483Z,42.53
2018-02-07T02:17:36.879Z,38.37
2018-02-07T02:20:04.557Z,41.47
2018-02-07T02:22:32.077Z,42.20
2018-02-07T02:24:59.869Z,38.37
2018-02-07T02:27:27.871Z,38.40
2018-02-07T02:29:56.563Z,39.70
2018-02-07T02:32:24.814Z,41.40
2018-02-07T02:34:53.435Z,36.87
2018-02-07T02:37:21.864Z,38.17
2018-02-07T02:39:51.159Z,41.07
2018-02-07T02:42:19.124Z,38.23
2018-02-07T02:44:47.201Z,40.60
2018-02-07T02:47:15.192Z,36.43
2018-02-07T02:49:44.180Z,42.13
2018-02-07T02:52:11.960Z,36.10
2018-02-07T02:54:39.633Z,41.33
2018-02-07T02:57:07.453Z,39.03
2018-02-07T02:59:34.984Z,37.40
2018-02-07T03:02:03.276Z,37.53
2018-02-07T03:04:30.816Z,35.97
2018-02-07T03:06:59.331Z,38.27
2018-02-07T03:09:27.199Z,37.00
2018-02-07T03:11:55.289Z,40.00
2018-02-07T03:14:24.571Z,36.00
2018-02-07T03:16:53.103Z,45.33
2018-02-07T03:19:21.360Z,34.27
2018-02-07T03:21:51.775Z,36.40
2018-02-07T03:24:21.940Z,38.00
2018-02-07T03:26:51.174Z,38.50
2018-02-07T03:29:20.933Z,37.90
2018-02-07T03:31:49.779Z,35.93
2018-02-07T03:34:17.467Z,34.67
2018-02-07T03:36:46.704Z,39.47
2018-02-07T03:39:15.430Z,36.70
2018-02-07T03:41:43.362Z,37.90
2018-02-07T03:44:10.932Z,39.53
2018-02-07T03:46:38.474Z,39.10
2018-02-07T03:49:06.010Z,37.87
2018-02-07T03:51:33.551Z,38.73
2018-02-07T03:54:01.085Z,34.53
2018-02-07T03:56:29.057Z,40.87
2018-02-07T03:58:56.934Z,38.67
2018-02-07T04:01:26.035Z,36.73
2018-02-07T04:03:54.495Z,41.37
2018-02-07T04:06:23.616Z,36.43
2018-02-07T04:08:51.822Z,40.40
2018-02-07T04:11:22.240Z,40.80
2018-02-07T04:13:51.305Z,35.67
2018-02-07T04:16:21.045Z,39.77
2018-02-07T04:18:49.805Z,40.97
2018-02-07T04:21:17.467Z,34.80
2018-02-07T04:23:46.206Z,39.40
2018-02-07T04:26:14.532Z,37.97
2018-02-07T04:28:42.504Z,36.97
2018-02-07T04:31:10.128Z,36.30
2018-02-07T04:33:38.431Z,41.57
2018-02-07T04:36:05.965Z,37.27
2018-02-07T04:38:34.289Z,39.37
2018-02-07T04:41:01.824Z,38.43
2018-02-07T04:43:29.588Z,38.83
2018-02-07T04:45:57.701Z,35.77
2018-02-07T04:48:26.669Z,37.57
2018-02-07T04:50:55.111Z,34.63
2018-02-07T04:53:23.388Z,39.33
2018-02-07T04:55:51.706Z,33.83
2018-02-07T04:58:19.880Z,39.10
2018-02-07T05:00:49.895Z,36.37
2018-02-07T05:03:18.890Z,34.87
2018-02-07T05:05:47.410Z,40.20
2018-02-07T05:08:16.424Z,36.23
2018-02-07T05:10:45.154Z,34.57
2018-02-07T05:13:13.028Z,41.03
2018-02-07T05:15:40.786Z,34.90
2018-02-07T05:18:08.354Z,36.73
2018-02-07T05:20:35.996Z,36.37
2018-02-07T05:23:03.556Z,33.90
2018-02-07T05:25:31.116Z,39.37
2018-02-07T05:27:59.228Z,33.63
2018-02-07T05:30:27.304Z,36.38
2018-02-07T05:32:56.435Z,36.75
2018-02-07T05:35:25.287Z,34.80
2018-02-07T05:37:54.355Z,37.30
2018-02-07T05:40:23.056Z,36.30
2018-02-07T05:42:53.130Z,39.25
2018-02-07T05:45:23.092Z,38.83
2018-02-07T05:47:51.998Z,38.45
2018-02-07T05:50:20.716Z,42.15
2018-02-07T05:52:49.892Z,38.00
2018-02-07T05:55:17.944Z,40.35
2018-02-07T05:57:45.933Z,39.30
2018-02-07T06:00:13.699Z,40.45
2018-02-07T06:02:41.280Z,38.97
2018-02-07T06:05:08.808Z,35.22
2018-02-07T06:07:36.353Z,33.78
2018-02-07T06:10:04.245Z,35.08
2018-02-07T06:12:31.961Z,34.17
2018-02-07T06:15:00.596Z,39.30
2018-02-07T06:17:28.662Z,39.60
2018-02-07T06:19:57.020Z,35.45
2018-02-07T06:22:25.464Z,35.10
2018-02-07T06:24:53.490Z,34.25
2018-02-07T06:27:21.970Z,32.35
2018-02-07T06:29:51.180Z,36.58
2018-02-07T06:32:19.351Z,32.35
2018-02-07T06:34:46.996Z,38.33
2018-02-07T06:37:14.881Z,32.88
2018-02-07T06:39:42.446Z,29.12
2018-02-07T06:42:10.044Z,30.90
2018-02-07T06:44:38.362Z,34.10
2018-02-07T06:47:05.909Z,31.77
2018-02-07T06:49:34.233Z,32.63
2018-02-07T06:52:01.768Z,31.10
2018-02-07T06:54:29.333Z,32.28
2018-02-07T06:56:56.894Z,33.85
2018-02-07T06:59:24.508Z,32.30
2018-02-07T07:01:53.247Z,31.73
2018-02-07T07:04:21.133Z,29.25
2018-02-07T07:06:48.908Z,30.20
2018-02-07T07:09:17.283Z,34.58
2018-02-07T07:11:44.887Z,33.92
2018-02-07T07:14:12.417Z,36.53
2018-02-07T07:16:40.407Z,32.75
2018-02-07T07:19:07.985Z,34.63
2018-02-07T07:21:35.509Z,37.05
2018-02-07T07:24:03.180Z,34.03
2018-02-07T07:26:30.716Z,37.92
2018-02-07T07:28:58.264Z,38.88
2018-02-07T07:31:25.848Z,36.58
2018-02-07T07:33:53.783Z,35.85
2018-02-07T07:36:22.683Z,45.90
2018-02-07T07:38:50.440Z,40.42
2018-02-07T07:41:18.323Z,35.20
2018-02-07T07:43:45.865Z,35.78
2018-02-07T07:46:13.420Z,37.83
2018-02-07T07:48:40.953Z,37.13
2018-02-07T07:51:09.312Z,34.83
2018-02-07T07:53:36.901Z,36.17
2018-02-07T07:56:04.461Z,33.40
2018-02-07T07:58:32.028Z,35.13
2018-02-07T08:00:59.559Z,30.42
2018-02-07T08:03:27.157Z,33.53
2018-02-07T08:05:54.840Z,35.78
2018-02-07T08:08:22.797Z,37.90
2018-02-07T08:10:50.556Z,38.15
2018-02-07T08:13:19.143Z,35.78
2018-02-07T08:15:46.959Z,35.42
2018-02-07T08:18:15.250Z,37.25
2018-02-07T08:20:43.579Z,34.53
2018-02-07T08:23:11.200Z,34.08
2018-02-07T08:25:38.853Z,33.42
2018-02-07T08:28:07.158Z,32.55
2018-02-07T08:30:34.678Z,33.90
2018-02-07T08:33:02.993Z,35.87
2018-02-07T08:35:30.543Z,35.60
2018-02-07T08:37:58.108Z,34.90
2018-02-07T08:40:25.708Z,36.60
2018-02-07T08:42:53.479Z,31.63
2018-02-07T08:45:21.243Z,30.83
2018-02-07T08:47:49.721Z,37.33
2018-02-07T08:50:17.323Z,31.90
2018-02-07T08:52:45.627Z,30.87
2018-02-07T08:55:13.213Z,32.37
2018-02-07T08:57:40.958Z,33.97
2018-02-07T09:00:08.512Z,30.60
2018-02-07T09:02:36.977Z,30.90
2018-02-07T09:05:04.533Z,32.50
2018-02-07T09:07:32.060Z,33.17
2018-02-07T09:10:01.090Z,33.03
2018-02-07T09:12:28.636Z,32.27
2018-02-07T09:14:56.990Z,30.63
2018-02-07T09:17:24.612Z,31.80
2018-02-07T09:19:52.264Z,32.60
2018-02-07T09:22:20.248Z,29.27
2018-02-07T09:24:47.852Z,33.13
2018-02-07T09:27:16.164Z,29.10
2018-02-07T09:29:44.564Z,33.93
2018-02-07T09:32:12.328Z,31.57
2018-02-07T09:34:40.060Z,30.97
2018-02-07T09:37:08.378Z,35.30
2018-02-07T09:39:35.902Z,36.37
2018-02-07T09:42:04.228Z,34.87
2018-02-07T09:44:31.800Z,32.77
2018-02-07T09:46:59.344Z,38.90
2018-02-07T09:49:26.998Z,36.40
2018-02-07T09:51:54.755Z,34.50
2018-02-07T09:54:22.799Z,37.83
2018-02-07T09:56:50.516Z,37.30
2018-02-07T09:59:18.169Z,36.07
2018-02-07T10:01:45.773Z,39.20
2018-02-07T10:04:13.368Z,40.10
2018-02-07T10:06:41.139Z,47.27
2018-02-07T10:09:08.802Z,45.67
2018-02-07T10:11:36.371Z,51.77
2018-02-07T10:14:03.892Z,49.57
2018-02-07T10:16:32.210Z,46.70
2018-02-07T10:18:59.739Z,46.60
2018-02-07T10:21:27.496Z,41.93
2018-02-07T10:23:56.028Z,45.07
2018-02-07T10:26:23.752Z,44.13
2018-02-07T10:28:52.244Z,43.00
2018-02-07T10:31:20.135Z,41.97
2018-02-07T10:33:47.899Z,43.33
2018-02-07T10:36:16.496Z,46.97
2018-02-07T10:38:44.306Z,41.97
2018-02-07T10:41:12.604Z,47.10
2018-02-07T10:43:40.168Z,43.63
2018-02-07T10:46:07.688Z,45.13
2018-02-07T10:48:35.216Z,51.40
2018-02-07T10:51:02.769Z,47.90
2018-02-07T10:53:30.304Z,47.23
2018-02-07T10:55:57.977Z,57.10
2018-02-07T10:58:26.056Z,50.47
2018-02-07T11:00:53.655Z,53.63
2018-02-07T11:03:21.458Z,52.53
2018-02-07T11:05:49.116Z,50.23
2018-02-07T11:08:16.753Z,54.13
2018-02-07T11:10:44.320Z,55.63
2018-02-07T11:13:12.647Z,55.17
2018-02-07T11:15:40.193Z,52.93
2018-02-07T11:18:07.725Z,53.37
2018-02-07T11:20:36.030Z,61.37
2018-02-07T11:23:03.562Z,56.50
2018-02-07T11:25:31.924Z,53.93
2018-02-07T11:28:00.350Z,59.07
2018-02-07T11:30:27.934Z,43.77
2018-02-07T11:32:56.430Z,44.40
2018-02-07T11:35:24.840Z,48.63
2018-02-07T11:37:53.286Z,50.63
2018-02-07T11:40:22.340Z,49.50
2018-02-07T11:42:50.238Z,49.27
2018-02-07T11:45:18.964Z,51.67
2018-02-07T11:47:47.281Z,57.50
2018-02-07T11:50:14.947Z,54.63
2018-02-07T11:52:42.478Z,54.27
2018-02-07T11:55:10.868Z,49.83
2018-02-07T11:57:38.525Z,53.03
2018-02-07T12:00:06.921Z,50.33
2018-02-07T12:02:34.468Z,51.27
2018-02-07T12:05:01.998Z,51.47
2018-02-07T12:07:29.640Z,45.27
2018-02-07T12:09:57.351Z,49.27
2018-02-07T12:12:25.123Z,49.30
2018-02-07T12:14:52.934Z,52.10
2018-02-07T12:17:20.656Z,48.23
2018-02-07T12:19:49.004Z,55.10
2018-02-07T12:22:16.605Z,51.80
2018-02-07T12:24:44.267Z,69.77
2018-02-07T12:27:11.848Z,55.33
2018-02-07T12:29:40.329Z,65.67
2018-02-07T12:32:07.876Z,53.70
2018-02-07T12:34:35.404Z,58.13
2018-02-07T12:37:03.732Z,49.33
2018-02-07T12:39:31.261Z,58.07
2018-02-07T12:41:58.932Z,48.70
2018-02-07T12:44:26.551Z,47.50
2018-02-07T12:46:55.074Z,44.97
2018-02-07T12:49:23.218Z,49.77
2018-02-07T12:51:51.768Z,46.70
2018-02-07T12:54:21.020Z,46.63
2018-02-07T12:56:48.588Z,46.90
2018-02-07T12:59:16.141Z,45.73
2018-02-07T13:01:43.916Z,48.40
2018-02-07T13:04:11.524Z,52.67
2018-02-07T13:06:39.077Z,53.00
2018-02-07T13:09:06.608Z,53.70
2018-02-07T13:11:34.153Z,53.80
2018-02-07T13:14:01.684Z,54.90
2018-02-07T13:16:29.912Z,53.23
2018-02-07T13:18:57.468Z,53.93
2018-02-07T13:21:25.318Z,51.20
2018-02-07T13:23:52.952Z,51.40
2018-02-07T13:26:21.049Z,50.43
2018-02-07T13:28:48.701Z,49.70
2018-02-07T13:31:16.252Z,48.70
2018-02-07T13:33:44.552Z,48.83
2018-02-07T13:36:12.113Z,50.07
2018-02-07T13:38:39.712Z,49.60
2018-02-07T13:41:07.309Z,47.80
2018-02-07T13:43:35.597Z,49.77
2018-02-07T13:46:03.138Z,47.53
2018-02-07T13:48:31.421Z,48.80
2018-02-07T13:50:59.710Z,46.80
2018-02-07T13:53:27.491Z,47.27
2018-02-07T13:55:55.121Z,48.60
2018-02-07T13:58:22.697Z,55.53
2018-02-07T14:00:53.757Z,51.33
2018-02-07T14:03:21.434Z,52.33
2018-02-07T14:05:49.031Z,46.33
2018-02-07T14:08:16.639Z,49.83
2018-02-07T14:10:44.188Z,50.03
2018-02-07T14:13:11.784Z,46.27
2018-02-07T14:15:40.344Z,51.90
2018-02-07T14:18:07.875Z,48.37
2018-02-07T14:20:35.457Z,48.03
2018-02-07T14:23:03.017Z,40.87
2018-02-07T14:25:30.532Z,43.67
2018-02-07T14:27:58.870Z,42.80
2018-02-07T14:30:26.532Z,39.33
2018-02-07T14:32:54.126Z,39.57
2018-02-07T14:35:21.849Z,37.53
2018-02-07T14:37:49.512Z,38.17
2018-02-07T14:40:17.073Z,38.17
2018-02-07T14:42:45.732Z,36.43
2018-02-07T14:45:14.238Z,38.93
2018-02-07T14:47:41.796Z,35.00
2018-02-07T14:50:09.345Z,35.97
2018-02-07T14:52:36.861Z,35.40
2018-02-07T14:55:05.218Z,37.10
2018-02-07T14:57:32.848Z,36.07
2018-02-07T15:00:00.398Z,36.50
2018-02-07T15:02:28.236Z,34.03
2018-02-07T15:04:56.356Z,33.87
2018-02-07T15:07:24.431Z,33.93
2018-02-07T15:09:52.191Z,35.47
2018-02-07T15:12:20.795Z,34.67
2018-02-07T15:14:48.747Z,36.07
2018-02-07T15:17:17.193Z,33.20
2018-02-07T15:19:46.020Z,35.13
2018-02-07T15:22:13.888Z,35.40
2018-02-07T15:24:41.450Z,35.50
2018-02-07T15:27:08.960Z,33.33
2018-02-07T15:29:36.498Z,34.40
2018-02-07T15:32:04.008Z,37.57
2018-02-07T15:34:31.516Z,36.10
2018-02-07T15:36:59.059Z,32.97
2018-02-07T15:39:27.015Z,35.60
2018-02-07T15:41:55.195Z,32.90
2018-02-07T15:44:24.565Z,35.00
2018-02-07T15:46:54.109Z,41.47
2018-02-07T15:49:22.288Z,36.90
2018-02-07T15:51:51.060Z,39.50
2018-02-07T15:54:19.370Z,37.93
2018-02-07T15:56:47.692Z,37.33
2018-02-07T15:59:16.243Z,38.47
2018-02-07T16:01:44.355Z,37.53
2018-02-07T16:04:12.158Z,38.60
2018-02-07T16:06:39.801Z,42.43
2018-02-07T16:09:07.582Z,43.83
2018-02-07T16:11:35.225Z,38.57
2018-02-07T16:14:02.748Z,46.13
2018-02-07T16:16:31.058Z,41.77
2018-02-07T16:18:58.848Z,48.63
2018-02-07T16:21:26.728Z,40.33
2018-02-07T16:23:54.602Z,42.83
2018-02-07T16:26:23.662Z,44.67
2018-02-07T16:28:53.180Z,44.60
2018-02-07T16:31:22.876Z,46.80
2018-02-07T16:33:52.862Z,41.77
2018-02-07T16:36:21.479Z,43.17
2018-02-07T16:38:50.908Z,41.93
2018-02-07T16:41:20.877Z,46.87
2018-02-07T16:43:49.752Z,48.77
2018-02-07T16:46:19.312Z,45.10
2018-02-07T16:48:47.926Z,43.57
2018-02-07T16:51:16.773Z,45.87
2018-02-07T16:53:44.420Z,41.83
2018-02-07T16:56:11.943Z,47.40
2018-02-07T16:58:39.495Z,46.27
2018-02-07T17:01:08.532Z,43.85
2018-02-07T17:03:36.090Z,48.70
2018-02-07T17:06:04.149Z,50.43
2018-02-07T17:08:32.777Z,49.47
2018-02-07T17:11:00.353Z,51.73
2018-02-07T17:13:28.529Z,46.73
2018-02-07T17:15:56.880Z,48.63
2018-02-07T17:18:24.989Z,57.90
2018-02-07T17:20:54.357Z,55.47
2018-02-07T17:23:23.861Z,50.50
2018-02-07T17:25:52.797Z,48.73
2018-02-07T17:28:21.865Z,50.27
2018-02-07T17:30:51.011Z,57.83
2018-02-07T17:33:19.323Z,54.23
2018-02-07T17:35:46.899Z,49.60
2018-02-07T17:38:14.441Z,48.30
2018-02-07T17:40:42.313Z,48.50
2018-02-07T17:43:09.888Z,50.10
2018-02-07T17:45:37.469Z,44.17
2018-02-07T17:48:05.154Z,43.33
2018-02-07T17:50:33.580Z,44.22
2018-02-07T17:53:01.297Z,37.47
2018-02-07T17:55:30.024Z,34.35
2018-02-07T17:57:59.033Z,37.67
2018-02-07T18:00:27.641Z,44.22
2018-02-07T18:02:55.893Z,35.17
2018-02-07T18:05:25.391Z,35.17
2018-02-07T18:07:55.006Z,41.28
2018-02-07T18:10:23.181Z,37.65
2018-02-07T18:12:52.437Z,38.10
2018-02-07T18:15:21.287Z,37.72
2018-02-07T18:17:50.299Z,37.22
2018-02-07T18:20:19.866Z,41.60
2018-02-07T18:22:47.738Z,40.15
2018-02-07T18:25:16.216Z,36.05
2018-02-07T18:27:43.762Z,39.35
2018-02-07T18:30:11.303Z,43.65
2018-02-07T18:32:39.867Z,28.45
2018-02-07T18:35:07.400Z,39.40
2018-02-07T18:37:35.266Z,33.08
2018-02-07T18:40:02.812Z,33.35
2018-02-07T18:42:30.775Z,31.48
2018-02-07T18:44:58.545Z,34.05
2018-02-07T18:47:26.312Z,34.53
2018-02-07T18:49:54.874Z,32.83
2018-02-07T18:52:24.314Z,34.45
2018-02-07T18:54:52.916Z,35.13
2018-02-07T18:57:22.789Z,33.13
2018-02-07T18:59:52.146Z,35.20
2018-02-07T19:02:21.122Z,31.80
2018-02-07T19:04:51.411Z,33.75
2018-02-07T19:07:19.802Z,33.88
2018-02-07T19:09:47.463Z,36.30
2018-02-07T19:12:15.108Z,31.08
2018-02-07T19:14:42.652Z,37.63
2018-02-07T19:17:11.226Z,33.85
2018-02-07T19:19:38.789Z,33.63
2018-02-07T19:22:07.084Z,34.58
2018-02-07T19:24:34.637Z,35.15
2018-02-07T19:27:02.174Z,32.67
2018-02-07T19:29:31.222Z,33.53
2018-02-07T19:31:58.773Z,31.48
2018-02-07T19:34:26.388Z,31.90
2018-02-07T19:36:54.404Z,32.33
2018-02-07T19:39:22.539Z,28.67
2018-02-07T19:41:50.447Z,33.65
2018-02-07T19:44:18.212Z,31.55
2018-02-07T19:46:46.579Z,34.50
2018-02-07T19:49:14.116Z,29.15
2018-02-07T19:51:42.436Z,33.45
2018-02-07T19:54:09.983Z,34.28
2018-02-07T19:56:37.528Z,35.08
2018-02-07T19:59:05.063Z,34.28
2018-02-07T20:01:32.622Z,33.83
2018-02-07T20:04:00.986Z,32.45
2018-02-07T20:06:28.740Z,31.25
2018-02-07T20:08:57.531Z,33.67
2018-02-07T20:11:25.276Z,35.20
2018-02-07T20:13:53.317Z,35.47
2018-02-07T20:16:21.512Z,32.38
2018-02-07T20:18:49.332Z,35.03
2018-02-07T20:21:16.992Z,32.65
2018-02-07T20:23:45.618Z,32.38
2018-02-07T20:26:13.150Z,30.65
2018-02-07T20:28:41.467Z,35.30
2018-02-07T20:31:09.030Z,33.22
2018-02-07T20:33:36.589Z,31.83
2018-02-07T20:36:04.166Z,33.75
2018-02-07T20:38:32.012Z,31.67
2018-02-07T20:41:00.752Z,34.75
2018-02-07T20:43:28.391Z,37.55
2018-02-07T20:45:56.331Z,34.05
2018-02-07T20:48:24.921Z,44.72
2018-02-07T20:50:52.661Z,31.17
2018-02-07T20:53:20.533Z,33.38
2018-02-07T20:55:48.516Z,30.37
2018-02-07T20:58:16.932Z,32.08
2018-02-07T21:00:44.663Z,36.63
2018-02-07T21:03:12.229Z,34.78
2018-02-07T21:05:39.756Z,33.47
2018-02-07T21:08:08.318Z,33.17
2018-02-07T21:10:36.664Z,32.17
2018-02-07T21:13:04.373Z,34.15
2018-02-07T21:15:35.107Z,36.13
2018-02-07T21:18:06.032Z,36.70
2018-02-07T21:20:37.675Z,41.05
2018-02-07T21:23:06.158Z,46.55
2018-02-07T21:25:34.205Z,40.10
2018-02-07T21:28:01.762Z,53.47
2018-02-07T21:30:29.776Z,54.25
2018-02-07T21:32:57.485Z,50.88
2018-02-07T21:35:26.512Z,52.38
2018-02-07T21:37:54.979Z,48.22
2018-02-07T21:40:22.993Z,49.13
2018-02-07T21:42:51.524Z,49.55
2018-02-07T21:45:43.403Z,52.03
2018-02-07T21:48:11.008Z,52.78
2018-02-07T21:50:38.554Z,50.90
2018-02-07T21:53:06.101Z,59.08
2018-02-07T21:55:34.409Z,51.83
2018-02-07T21:58:01.928Z,48.20
2018-02-07T22:00:30.479Z,45.90
2018-02-07T22:02:58.220Z,49.63
2018-02-07T22:05:25.986Z,51.97
2018-02-07T22:07:53.965Z,48.58
2018-02-07T22:10:23.039Z,49.22
2018-02-07T22:12:52.150Z,57.08
2018-02-07T22:15:20.530Z,56.65
2018-02-07T22:17:49.306Z,60.30
2018-02-07T22:20:17.694Z,63.83
2018-02-07T22:22:45.552Z,62.00
2018-02-07T22:25:13.114Z,62.70
2018-02-07T22:27:40.640Z,80.32
2018-02-07T22:30:08.924Z,66.97
2018-02-07T22:32:37.229Z,68.87
2018-02-07T22:35:04.752Z,71.53
2018-02-07T22:37:33.055Z,69.78
2018-02-07T22:40:00.636Z,57.08
2018-02-07T22:42:28.543Z,59.63
2018-02-07T22:44:56.560Z,54.40
2018-02-07T22:47:24.841Z,54.78
2018-02-07T22:49:53.373Z,55.92
2018-02-07T22:52:23.041Z,53.28
2018-02-07T22:54:52.385Z,56.03
2018-02-07T22:57:22.099Z,58.38
2018-02-07T22:59:50.762Z,59.10
2018-02-07T23:02:20.061Z,56.45
2018-02-07T23:04:49.788Z,54.80
2018-02-07T23:07:17.950Z,57.62
2018-02-07T23:09:45.509Z,55.85
2018-02-07T23:12:13.043Z,59.22
2018-02-07T23:14:40.706Z,60.97
2018-02-07T23:17:08.232Z,62.45
2018-02-07T23:19:36.532Z,54.95
2018-02-07T23:22:04.052Z,58.22
2018-02-07T23:24:31.689Z,63.05
2018-02-07T23:26:59.818Z,70.03
2018-02-07T23:29:28.757Z,65.93
2018-02-07T23:31:57.430Z,68.25
2018-02-07T23:34:25.516Z,71.68
2018-02-07T23:36:53.764Z,72.87
2018-02-07T23:39:23.091Z,69.10
2018-02-07T23:41:51.347Z,67.05
2018-02-07T23:44:20.342Z,69.43
2018-02-07T23:46:48.411Z,73.43
2018-02-07T23:49:16.074Z,62.75
2018-02-07T23:51:43.614Z,75.65
2018-02-07T23:54:11.156Z,76.80
2018-02-07T23:56:39.753Z,69.25
2018-02-07T23:59:08.036Z,63.20
